METAR / TAF

Die METAR- und TAF-Liste ist aus technischen Gründen (Verfügbarkeit, Update-Zyklen) nicht für ein Meteo-Briefing gedacht. Benutzen Sie stattdessen skybriefing der Skyguide  oder das TAMSI (MeteoSchweiz-eigene Meteo Selfbriefing-Plattform für Firmen aus der Aviatik; Anfragen über das

Kontaktformular

METAR Schweiz

METAR     LSZH 181520Z 29016KT 9999 FEW040 FEW045CB SCT250 28/17
               Q1013 TEMPO 26015G28KT=
METAR     LSZH 181550Z 29015KT 9999 FEW040 SCT130 25/16 Q1013 TEMPO
               26015G28KT TSRA=
METAR     LSGG 181520Z 27010G21KT 250V310 9999 -TSRA FEW045
               SCT050CB BKN120 22/18 Q1015 RETSRA TEMPO NSW=
METAR     LSGG 181550Z 29020G31KT 270V340 9999 VCSH FEW035
               FEW045TCU BKN120 23/16 Q1015 NOSIG=
METAR     LFSB 181600Z 26010KT 230V290 9999 -SHRA FEW048 FEW053CB
               BKN066 24/18 Q1014 TEMPO 29015G27KT 1500 TSRA=
METAR     LSZB 181520Z 29011KT 9999 FEW055 SCT065TCU BKN200 29/17
               Q1013 BECMG TS SHRA=
METAR     LSZB 181550Z AUTO 30012KT 9999 SCT140 //////TCU 27/17
               Q1013=
METAR     LSZA 181520Z VRB02KT 9999 FEW070 32/18 Q1015 NOSIG=
METAR     LSZA 181550Z 29002KT 9999 FEW070TCU 29/19 Q1015 NOSIG=
METAR     LSZG 181520Z 28006KT 220V030 9999 SCT055 BKN130 27/17
               Q1013 NOSIG=
METAR     LSZG 181550Z 28012KT 9999 FEW040 BKN130 25/17 Q1014 NOSIG=
METAR     LSZR 181520Z VRB02KT 9999 FEW050 29/16 Q1012 NOSIG RMK N=
METAR     LSZR 181550Z 33004KT 9999 FEW050 28/18 Q1012 NOSIG RMK O=
METAR     LSGS 181520Z 26011KT 9999 SCT120 BKN200 30/16 Q1012=
METAR     LSGS 181550Z 22003KT 180V280 9999 SCT120CB BKN200 30/15
               Q1010=
METAR     LSGC 181520Z 27010KT 240V310 9999 FEW018 BKN026 BKN032CB
               19/15 Q1019=
METAR     LSGC 181550Z 30011KT 250V030 9999 TSRA SCT009 BKN020
               SCT045CB 16/15 Q1020=
METAR     LSZC 181520Z AUTO VRB03KT 9999 SCT100 SCT120 BKN140 28/18
               Q1013=
METAR     LSZC 181550Z AUTO VRB02KT 9999 -TSRA SCT060CB BKN080
               28/20 Q1013=
METAR     LSZL 181520Z NIL=
METAR     LSZL 181550Z AUTO 26003KT 210V290 9999NDV FEW073 BKN100
               28/21 Q1015 RMK=
METAR     LSZS 181520Z 23015KT 9999 SCT070 20/13 Q1023 RMK T=
METAR     LSZS 181550Z 24014KT 9999 BKN070 19/12 Q1023 RMK U=
METAR     LSMA 181520Z NIL=
METAR     LSMA 181550Z AUTO VRB02KT 9999NDV SCT088 SCT130 28/20
               Q1012 RMK=
METAR     LSMD 181520Z NIL=
METAR     LSMD 181550Z AUTO 33011G28KT 300V010 9999NDV FEW130 28/17
               Q1013 RMK=
METAR     LSME 181520Z NIL=
METAR     LSME 181550Z AUTO 32005KT 280V360 9999NDV -SHRA FEW050
               SCT075 29/18 Q1012 RMK=
METAR     LSMM 181520Z NIL=
METAR     LSMM 181550Z AUTO 24005KT 210V010 9999NDV R10/1400N
               R28/P2000N FEW077 SCT110 26/17 Q1013 RMK=
METAR     LSMP 181520Z NIL=
METAR     LSMP 181550Z AUTO 30008KT 250V340 9999NDV -RA SCT063
               BKN120 BKN150 26/17 Q1014 RMK=
METAR     LSMS 181520Z 26011KT 9999 SCT120 BKN200 30/16 Q1012 RMK
               BLU=
METAR     LSMS 181550Z 22003KT 180V280 9999 SCT120CB BKN200 30/15
               Q1010 RMK BLU=
Aktualisiert am Freitag, 18. August 2017, 18:11 Uhr

TAF Schweiz

TAF     LSZH 181425Z 1815/1921 27008KT 9999 SCT050TCU TX29/1815Z
             TN14/1905Z TX21/1915Z TEMPO 1815/1822 SHRA TEMPO
             1815/1819 29020G45KT 3000 TSRA FEW010 SCT030CB BKN050
             PROB40 TEMPO 1815/1818 1500 +TSRA BKN020CB PROB40
             TEMPO 1815/1818 TSGR BECMG 1900/1903 VRB03KT PROB40
             TEMPO 1904/1914 SHRA BECMG 1910/1913 29010KT=
TAF     LSGG 181425Z 1815/1921 23010KT 9999 FEW050TCU SCT100
             TX30/1815Z TN15/1905Z TX23/1915Z TEMPO 1815/1821 4500
             TSRA SCT030CB BKN060 PROB30 TEMPO 1815/1820
             29020G30KT 2000 +TSRA BECMG 1900/1902 VRB03KT=
TAF AAA LFSB 181309Z 1813/1912 VRB05KT 9999 FEW040 BKN100 TEMPO
             1813/1818 29015G25KT 4000 -SHRA SCT050CB PROB40 TEMPO
             1813/1818 2000 TSRA TEMPO 1818/1906 28010KT 4000 SHRA
             SCT030TCU PROB40 TEMPO 1903/1906 BKN014=
TAF     LFSB 181100Z 1812/1912 VRB04KT 9999 FEW040 TEMPO 1813/1818
             28015G25KT 4000 -SHRA SCT050CB PROB30 TEMPO 1813/1818
             2000 TSRA TEMPO 1818/1906 28010KT 4000 SHRA SCT030TCU
             PROB40 TEMPO 1903/1906 BKN014=
TAF     LSGS 181425Z 1815/1824 VRB03KT 9999 SCT120 BECMG 1815/1817
             25012KT TEMPO 1817/1822 TSRA FEW080CB BKN100=
TAF     LSZA 181425Z 1815/1824 18007KT 9999 SCT070 TEMPO 1816/1824
             SHRA SCT050TCU PROB40 TEMPO 1816/1822 18012G35KT 4000
             TSRA SCT040CB BKN050=
TAF     LSZB 181425Z 1815/1824 30008KT 9999 SCT045TCU TEMPO
             1815/1819 30020G45KT 4000 TSRA SCT040CB TEMPO
             1819/1824 SHRA=
TAF     LSZG 181425Z 1815/1824 22009KT 9999 FEW045 TEMPO 1815/1818
             30015G35KT 3500 TSRA SCT060CB PROB30 1815/1818
             30015G45KT 2500 TSRAGR SCT060CB TEMPO 1818/1821 SHRA=
TAF     LSZL 181125Z 1812/1821 25003KT 9999 FEW065 SCT100 TEMPO
             1818/1821 SHRA SCT050TCU=
TAF     LSZR 181425Z 1815/1824 VRB03KT 9999 SCT060TCU TEMPO
             1816/1819 29020G45KT 4000 TSRA SCT040CB PROB40 TEMPO
             1816/1818 2500 +TSRA BKN020CB TEMPO 1819/1824 SHRA=
TAF     LSGC 181425Z 1815/1824 24007KT 9999 FEW030 SCT050TCU TEMPO
             1815/1819 30015G25KT 4000 TSRA SCT040CB BKN050=
TAF     LSZC 181425Z 1815/1824 10005KT 9999 FEW050 TEMPO 1815/1818
             03014G35KT TSRA FEW060CB PROB30 1815/1818 30015G45KT
             2500 TSRAGR SCT060CB TEMPO 1818/1823 SHRA=
TAF     LSZS 181425Z 1815/1824 22015KT 9999 BKN060 TX22/1815Z TEMPO
             1819/1824 SHRA PROB40 1818/1822 22015G35KT 4000 TSRA
             SCT040CB BECMG 1820/1822 20004KT=
TAF     LSMA 180925Z 1810/1916 08003KT 9999 FEW060 TEMPO 1810/1815
             CAVOK TEMPO 1815/1822 21015G35KT 3000 TSRA SCT030CB
             BKN060 PROB40 TEMPO 1815/1818 2500 TSRAGR SCT020CB
             TEMPO 1822/1906 SHRA=
TAF     LSMD 180925Z 1810/1916 VRB01KT CAVOK BECMG 1812/1816 9999
             FEW050TCU SCT060 TEMPO 1815/1822 29020G45KT 3000 TSRA
             SCT030CB BKN060 PROB40 TEMPO 1815/1818 2500 TSRAGR
             SCT020CB TEMPO 1822/1910 SHRA FEW020 SCT060=
TAF     LSME 180925Z 1810/1916 23004KT CAVOK BECMG 1812/1816 9999
             FEW050TCU SCT060 TEMPO 1815/1822 25015G35KT 3000 TSRA
             SCT030CB BKN060 PROB40 TEMPO 1815/1818 2500 TSRAGR
             SCT020CB TEMPO 1822/1906 SHRA FEW020 SCT060=
TAF     LSMM 180925Z 1810/1916 11004KT CAVOK BECMG 1812/1816 9999
             FEW050TCU SCT060 TEMPO 1816/1822 26015G35KT 3000 TSRA
             SCT030CB BKN060 PROB40 TEMPO 1814/1818 2500 TSRAGR
             SCT020CB TEMPO 1822/1906 SHRA FEW020 SCT060=
TAF     LSMP 180925Z 1810/1916 VRB03KT CAVOK BECMG 1812/1815
             23010KT 9999 SCT040 BKN080 TEMPO 1815/1822 27015G25KT
             4500 TSRA SCT030CB BKN050 BECMG 1823/1901 NSW=
Aktualisiert am Freitag, 18. August 2017, 18:03 Uhr